Bangkok (Suvarnabhumi), Thailand

3:19 PM ICT on July 28, 2014 (GMT +0700)
Bangkok (Suvarnabhumi) (VTBS) Elev 7 ft | 13.36 °N, 100.98 °E | Change Station

Current weather conditions updated 19 minutes ago

Light Rain
Light Rain
79 °F
Feels Like 79 °F
N
6
Wind Variable Wind from South

Today is forecast to be Cooler than yesterday. Slight chance of a thunderstorm.

Today
High -- | Low -- °F
--% Chance of Precip.
Yesterday
High -- | Low -- °F
Precip. -- in
6:00 AM 6:44 PM
New Moon, 2% visible
Pressure 29.74 in
Visibility 5.6 miles
Clouds Few 2000 ft
Mostly Cloudy 12000 ft
Mostly Cloudy 30000 ft
Dew Point 73 °F
Humidity 83%
Rainfall 0.00 in
Snow Depth Not available.
UV 6 out of 12
Pollen Not available.
Air Quality Not available.
Flu Activity Not available.
METAR VTBS 280800Z 19005KT 9000 -RA FEW020 BKN120 BKN300 26/23 Q1007 NOSIG

More Conditions Fewer Conditions

Pressure 29.74 in
Visibility 5.6 miles
Clouds Few 2000 ft
Mostly Cloudy 12000 ft
Mostly Cloudy 30000 ft
Dew Point 73 °F
Humidity 83%
Rainfall 0.00 in
Snow Depth Not available.
UV 6 out of 12
Pollen Not available.
Air Quality Not available.
Flu Activity Not available.
METAR VTBS 280800Z 19005KT 9000 -RA FEW020 BKN120 BKN300 26/23 Q1007 NOSIG

More Conditions Fewer Conditions

10-Day Weather Forecast

Almanac

Astronomy

Jul. 28, 2014 Rise Set
Actual Time 6:00 AM ICT 6:44 PM ICT
Civil Twilight 5:37 AM ICT 7:07 PM ICT
Nautical Twilight 5:10 AM ICT 7:34 PM ICT
Astronomical Twilight 4:43 AM ICT 8:01 PM ICT
Moon 6:52 AM ICT 7:34 PM ICT
Length of Visible Light 13h 30m
Length of Day
12h 44m
Tomorrow will be 0m 31s shorter.
New Moon, 2% of the Moon is Illuminated
Today
New Moon
Aug 3
First Quarter
Aug 10
Full
Aug 17
Last Quarter
Aug 25
New

Yesterday's Extremes

Country Highs Country Lows

Community

WunderPhotos

Upload Photos

1,738,293 photos uploaded!

Nearby

Snow Depth

Not available.

Earthquake Activity

City Distance Mag. Time & Date
No recent earthquake activity has been reported nearby.
Minimum magnitude displayed is 2.5.

Coastal Water Temperatures

Place Temperature
No Stations Reporting

Nearby Weather Stations

There are no personal weather stations in this area.